Time;durP1;ratioP1;P1;durP2;ratioP2;P2;SDS_P1;SDS_P2;PMS_P1;PMS_P2;Temp;Humidity;BMP_temperature;BMP_pressure;BME280_temperature;BME280_humidity;BME280_pressure;Samples;Min_cycle;Max_cycle;Signal;HPM_P1;HPM_P2
2021/07/08 00:03:26;;;;;;;3.67;1.70;;;22.00;66.00;;;;;;20778269;28;20412;-21
2021/07/08 00:13:28;;;;;;;5.75;1.52;;;22.00;66.00;;;;;;20774301;28;20030;-20
2021/07/08 00:23:29;;;;;;;3.85;1.95;;;22.00;65.90;;;;;;20783310;28;20065;-20
2021/07/08 00:33:30;;;;;;;6.88;2.20;;;21.90;65.80;;;;;;20776193;28;20030;-20
2021/07/08 00:43:31;;;;;;;6.47;2.23;;;21.90;65.70;;;;;;20769757;28;20040;-20
2021/07/08 00:53:31;;;;;;;5.68;1.92;;;21.90;65.60;;;;;;20779065;28;20468;-19
2021/07/08 01:03:34;;;;;;;4.50;2.03;;;21.80;65.60;;;;;;20773454;28;20040;-19
2021/07/08 01:13:35;;;;;;;4.32;1.98;;;21.80;65.60;;;;;;20780545;28;20080;-19
2021/07/08 01:23:35;;;;;;;6.70;2.08;;;21.80;65.60;;;;;;20803922;28;20065;-19
2021/07/08 01:33:36;;;;;;;6.80;1.80;;;21.80;65.60;;;;;;20783386;28;20034;-19
2021/07/08 01:43:40;;;;;;;4.73;2.00;;;21.70;65.20;;;;;;20787860;28;20045;-19
2021/07/08 01:53:40;;;;;;;6.10;1.98;;;21.70;65.00;;;;;;20790124;28;20079;-19
2021/07/08 02:03:42;;;;;;;4.05;2.00;;;21.70;65.10;;;;;;20788007;28;20488;-19
2021/07/08 02:13:42;;;;;;;6.18;1.73;;;21.70;65.00;;;;;;20827390;28;20037;-19
2021/07/08 02:23:43;;;;;;;6.00;2.33;;;21.70;64.80;;;;;;20831050;28;20029;-19
2021/07/08 02:33:44;;;;;;;4.25;1.60;;;21.60;64.60;;;;;;20822367;28;20487;-19
2021/07/08 02:43:44;;;;;;;8.93;2.00;;;21.60;64.50;;;;;;20819318;28;20122;-19
2021/07/08 02:53:45;;;;;;;6.25;2.05;;;21.60;64.40;;;;;;20806522;28;20059;-19
2021/07/08 03:03:45;;;;;;;4.00;1.45;;;21.60;64.40;;;;;;20821416;28;20056;-19
2021/07/08 03:13:46;;;;;;;6.43;2.28;;;21.60;64.40;;;;;;20827645;28;20519;-19
2021/07/08 03:23:47;;;;;;;5.97;1.93;;;21.60;64.40;;;;;;20824563;28;20504;-19
2021/07/08 03:33:47;;;;;;;5.38;1.90;;;21.60;64.50;;;;;;20825297;28;20448;-20
2021/07/08 03:43:48;;;;;;;7.80;2.70;;;21.50;64.70;;;;;;20824512;28;20395;-20
2021/07/08 03:53:48;;;;;;;5.68;1.50;;;21.50;64.50;;;;;;20829298;28;20022;-21
2021/07/08 04:03:49;;;;;;;5.88;1.65;;;21.50;64.40;;;;;;20823192;28;20599;-20
2021/07/08 04:13:49;;;;;;;4.82;2.45;;;21.50;64.50;;;;;;20794490;22;20081;-21
2021/07/08 04:23:50;;;;;;;3.63;1.83;;;21.60;64.50;;;;;;20789882;28;20065;-20
2021/07/08 04:33:50;;;;;;;7.50;1.98;;;21.50;64.80;;;;;;20822318;28;20029;-20
2021/07/08 04:43:51;;;;;;;4.47;1.80;;;21.50;64.80;;;;;;20819480;28;20033;-19
2021/07/08 04:53:52;;;;;;;2.70;1.73;;;21.50;64.80;;;;;;20818423;28;20582;-19
2021/07/08 05:03:52;;;;;;;4.72;1.60;;;21.50;65.00;;;;;;20818793;28;20054;-20
2021/07/08 05:13:53;;;;;;;5.00;1.92;;;21.50;65.30;;;;;;20816081;28;20522;-19
2021/07/08 05:23:57;;;;;;;6.63;2.00;;;21.50;65.60;;;;;;20834458;28;20037;-19
2021/07/08 05:33:58;;;;;;;28.48;8.30;;;21.50;65.60;;;;;;20834065;28;20072;-20
2021/07/08 05:43:59;;;;;;;19.35;5.50;;;21.60;66.10;;;;;;20834928;28;20050;-20
2021/07/08 05:54:00;;;;;;;24.50;7.32;;;21.60;65.80;;;;;;20834753;28;20036;-21
2021/07/08 06:04:00;;;;;;;17.95;5.18;;;21.60;65.70;;;;;;20826926;28;20029;-20
2021/07/08 06:14:01;;;;;;;21.20;4.87;;;21.70;65.60;;;;;;20827602;28;20095;-19
2021/07/08 06:24:02;;;;;;;13.93;4.97;;;21.70;65.40;;;;;;20827033;28;21067;-21
2021/07/08 06:34:05;;;;;;;11.05;4.50;;;21.70;65.40;;;;;;20833075;28;20026;-20
2021/07/08 06:44:06;;;;;;;16.50;4.07;;;21.80;65.50;;;;;;20828288;28;20029;-20
2021/07/08 06:54:07;;;;;;;16.63;5.70;;;21.80;65.50;;;;;;20827133;28;20036;-21
2021/07/08 07:04:07;;;;;;;6.45;3.85;;;21.80;66.10;;;;;;20825637;28;20416;-21
2021/07/08 07:14:08;;;;;;;10.70;4.03;;;21.90;66.50;;;;;;20823794;28;20080;-20
2021/07/08 07:24:08;;;;;;;11.87;4.37;;;21.90;66.40;;;;;;20828379;28;20080;-21
2021/07/08 07:34:10;;;;;;;10.50;3.90;;;21.90;66.40;;;;;;20826222;28;20034;-20
2021/07/08 07:44:11;;;;;;;11.35;3.55;;;21.90;66.50;;;;;;20812698;28;20520;-20
2021/07/08 07:54:11;;;;;;;9.30;3.38;;;22.00;66.60;;;;;;20775470;28;20069;-21
2021/07/08 08:04:12;;;;;;;7.07;3.87;;;22.00;66.60;;;;;;20821647;28;20490;-21
2021/07/08 08:14:13;;;;;;;9.05;3.85;;;22.10;66.40;;;;;;20796989;28;20526;-21
2021/07/08 08:24:13;;;;;;;5.47;2.92;;;22.10;66.30;;;;;;20774813;28;20106;-21
2021/07/08 08:34:14;;;;;;;5.03;2.45;;;22.10;66.20;;;;;;20808660;28;20036;-21
2021/07/08 08:44:14;;;;;;;9.07;3.13;;;22.10;66.20;;;;;;20801788;28;20029;-20
2021/07/08 08:54:15;;;;;;;8.45;3.33;;;22.10;66.40;;;;;;20787835;28;20392;-21
2021/07/08 09:04:42;;;;;;;9.80;3.35;;;22.10;66.30;;;;;;20805142;28;20026;-20
2021/07/08 09:14:42;;;;;;;7.10;3.03;;;22.20;66.40;;;;;;20810678;28;20068;-21
2021/07/08 09:24:43;;;;;;;12.13;3.00;;;22.20;66.50;;;;;;20819040;28;20091;-21
2021/07/08 09:34:49;;;;;;;7.63;2.72;;;22.20;66.60;;;;;;20823697;28;20510;-20
2021/07/08 09:45:08;;;;;;;6.97;3.28;;;22.20;66.60;;;;;;20829572;28;20029;-20
2021/07/08 09:55:15;;;;;;;11.88;2.83;;;22.20;66.60;;;;;;20841937;28;20456;-21
2021/07/08 10:05:17;;;;;;;8.40;3.03;;;22.20;66.70;;;;;;20860562;28;20087;-20
2021/07/08 10:15:18;;;;;;;5.32;3.28;;;22.30;66.70;;;;;;20826196;28;20049;-20
2021/07/08 10:25:19;;;;;;;8.45;2.70;;;22.30;67.10;;;;;;20826065;28;20036;-20
2021/07/08 10:35:41;;;;;;;9.43;2.63;;;22.30;67.00;;;;;;20830805;28;20488;-20
2021/07/08 10:45:43;;;;;;;7.82;3.00;;;22.30;66.90;;;;;;20837843;28;20385;-19
2021/07/08 10:55:47;;;;;;;10.35;3.03;;;22.40;67.00;;;;;;20827624;28;20458;-21
2021/07/08 11:05:55;;;;;;;5.35;2.50;;;22.40;67.30;;;;;;20826746;28;20087;-20
2021/07/08 11:15:56;;;;;;;5.20;2.63;;;22.40;67.50;;;;;;20828930;28;20030;-22
2021/07/08 11:25:56;;;;;;;3.15;2.33;;;22.50;67.70;;;;;;20816472;28;20123;-19
2021/07/08 11:36:01;;;;;;;7.38;2.83;;;22.50;67.70;;;;;;20789736;28;20056;-20
2021/07/08 11:46:10;;;;;;;7.15;2.92;;;22.50;67.70;;;;;;20829043;28;20046;-19
2021/07/08 11:56:11;;;;;;;5.53;3.25;;;22.50;67.50;;;;;;20824684;28;20515;-21
2021/07/08 12:06:16;;;;;;;4.15;2.28;;;22.50;67.40;;;;;;20828640;28;20397;-20
2021/07/08 12:16:30;;;;;;;5.28;2.65;;;22.60;67.50;;;;;;20827164;28;20492;-20
2021/07/08 12:26:37;;;;;;;6.22;2.65;;;22.60;67.40;;;;;;20824266;28;20041;-19
2021/07/08 12:36:38;;;;;;;5.90;2.85;;;22.50;67.10;;;;;;20822679;28;20465;-20
2021/07/08 12:46:39;;;;;;;4.78;2.33;;;22.50;66.80;;;;;;20821280;28;20021;-20
2021/07/08 12:56:39;;;;;;;6.22;3.10;;;22.50;66.90;;;;;;20822872;28;20482;-19
2021/07/08 13:06:40;;;;;;;6.50;2.95;;;22.50;67.00;;;;;;20821622;28;20063;-19
2021/07/08 13:16:41;;;;;;;4.88;2.63;;;22.50;67.00;;;;;;20820956;28;20022;-21
2021/07/08 13:26:45;;;;;;;3.95;2.53;;;22.50;67.20;;;;;;20742102;28;20030;-20
2021/07/08 13:36:46;;;;;;;6.10;2.88;;;22.50;67.30;;;;;;20777764;28;20072;-21
2021/07/08 13:46:56;;;;;;;4.10;2.50;;;22.50;67.30;;;;;;20777380;28;20026;-20
2021/07/08 13:56:56;;;;;;;3.80;2.17;;;22.40;67.50;;;;;;20768895;28;20108;-19
2021/07/08 14:06:57;;;;;;;16.48;3.80;;;22.50;67.70;;;;;;20773370;28;20069;-21
2021/07/08 14:16:58;;;;;;;10.40;5.07;;;22.60;67.40;;;;;;20777930;28;20029;-20
2021/07/08 14:26:58;;;;;;;25.70;4.45;;;22.60;66.70;;;;;;20761137;28;20026;-21
2021/07/08 14:36:59;;;;;;;45.97;5.75;;;22.70;66.40;;;;;;20728476;28;20113;-21
2021/07/08 14:47:04;;;;;;;16.42;4.00;;;22.60;67.10;;;;;;20760254;28;20061;-20
2021/07/08 14:57:05;;;;;;;16.25;3.22;;;22.50;66.80;;;;;;20757274;28;20029;-21
2021/07/08 15:07:05;;;;;;;17.88;4.45;;;22.70;66.40;;;;;;20698173;28;20074;-20
2021/07/08 15:17:06;;;;;;;13.13;3.42;;;22.70;66.30;;;;;;20688005;28;20419;-20
2021/07/08 15:27:07;;;;;;;23.75;3.47;;;22.70;66.30;;;;;;20763867;28;20025;-20
2021/07/08 15:37:07;;;;;;;15.70;3.23;;;22.70;66.20;;;;;;20758953;28;20025;-20
2021/07/08 15:47:08;;;;;;;11.30;2.63;;;22.60;67.50;;;;;;20738080;28;20515;-20
2021/07/08 15:57:10;;;;;;;18.20;3.42;;;22.60;68.20;;;;;;20747540;28;20021;-20
2021/07/08 16:07:11;;;;;;;7.10;2.92;;;22.60;68.80;;;;;;20753293;28;20037;-20
2021/07/08 16:17:12;;;;;;;9.27;3.72;;;22.50;68.10;;;;;;20769852;28;20038;-21
2021/07/08 16:27:12;;;;;;;9.98;2.55;;;22.50;68.10;;;;;;20742314;28;20058;-21
2021/07/08 16:37:13;;;;;;;6.30;2.60;;;22.50;68.30;;;;;;20742506;28;20400;-20
2021/07/08 16:47:14;;;;;;;10.20;2.83;;;22.50;68.40;;;;;;20746681;28;20034;-20
2021/07/08 16:57:16;;;;;;;12.15;3.60;;;22.50;68.60;;;;;;20748481;28;20120;-20
2021/07/08 17:07:17;;;;;;;30.70;10.18;;;22.50;68.70;;;;;;20740354;28;20466;-20
2021/07/08 17:17:17;;;;;;;46.23;16.00;;;22.50;69.20;;;;;;20751651;28;20057;-20
2021/07/08 17:27:18;;;;;;;48.05;15.50;;;22.50;70.80;;;;;;20750726;28;20037;-20
2021/07/08 17:37:19;;;;;;;56.70;16.97;;;22.60;71.30;;;;;;20757241;28;20087;-20
2021/07/08 17:47:19;;;;;;;34.35;15.38;;;22.90;71.40;;;;;;20756087;28;20527;-20
2021/07/08 17:57:20;;;;;;;37.63;15.63;;;22.90;71.40;;;;;;20754181;28;20084;-20
2021/07/08 18:07:20;;;;;;;38.42;16.30;;;22.90;71.60;;;;;;20738053;28;20057;-21
2021/07/08 18:17:21;;;;;;;40.28;14.05;;;22.90;71.50;;;;;;20741927;28;20084;-19
2021/07/08 18:27:23;;;;;;;26.05;12.52;;;22.90;71.30;;;;;;20762756;28;20053;-19
2021/07/08 18:37:24;;;;;;;39.65;14.23;;;22.80;71.20;;;;;;20755694;28;20042;-20
2021/07/08 18:47:25;;;;;;;25.10;12.90;;;22.80;71.20;;;;;;20761205;28;20040;-20
2021/07/08 18:57:25;;;;;;;27.77;10.70;;;22.70;71.10;;;;;;20767429;28;20472;-20
2021/07/08 19:07:26;;;;;;;21.73;8.98;;;22.60;71.60;;;;;;20767426;28;20029;-21
2021/07/08 19:17:26;;;;;;;21.00;8.48;;;22.60;71.50;;;;;;20770299;28;20108;-20
2021/07/08 19:27:27;;;;;;;19.40;8.20;;;22.50;71.40;;;;;;20766031;28;20034;-20
2021/07/08 19:37:28;;;;;;;18.75;5.97;;;22.50;71.40;;;;;;20767337;28;20030;-20
2021/07/08 19:47:28;;;;;;;11.35;5.85;;;22.50;70.90;;;;;;20768085;28;20489;-21
2021/07/08 19:57:29;;;;;;;13.10;5.18;;;22.40;70.80;;;;;;20762021;28;20503;-20
2021/07/08 20:07:30;;;;;;;10.20;5.97;;;22.40;70.80;;;;;;20750075;28;20045;-20
2021/07/08 20:17:32;;;;;;;13.77;4.80;;;22.40;70.60;;;;;;20711994;28;20030;-20
2021/07/08 20:27:33;;;;;;;8.82;4.43;;;22.40;70.80;;;;;;20737817;28;20061;-20
2021/07/08 20:37:34;;;;;;;7.82;4.63;;;22.40;70.80;;;;;;20763668;28;20540;-20
2021/07/08 20:47:35;;;;;;;8.50;4.60;;;22.30;70.70;;;;;;20746257;28;20039;-20
2021/07/08 20:57:35;;;;;;;11.30;5.00;;;22.30;70.80;;;;;;20749432;28;20030;-19
2021/07/08 21:07:38;;;;;;;10.55;4.57;;;22.30;70.80;;;;;;20740467;28;20038;-19
2021/07/08 21:17:38;;;;;;;5.55;3.40;;;22.30;70.80;;;;;;20721358;28;20040;-20
2021/07/08 21:27:39;;;;;;;7.15;4.55;;;22.30;70.80;;;;;;20741889;28;20053;-20
2021/07/08 21:37:39;;;;;;;5.50;3.70;;;22.30;70.70;;;;;;20735110;28;20468;-19
2021/07/08 21:47:40;;;;;;;7.80;3.55;;;22.30;70.50;;;;;;20737901;28;20036;-19
2021/07/08 21:57:40;;;;;;;17.58;4.75;;;22.30;70.40;;;;;;20757625;28;20528;-19
2021/07/08 22:07:41;;;;;;;19.27;6.38;;;22.30;71.50;;;;;;20749812;28;20444;-19
2021/07/08 22:17:42;;;;;;;15.77;5.70;;;22.20;71.90;;;;;;20948097;23;20136;-19
2021/07/08 22:27:42;;;;;;;13.53;5.87;;;22.30;71.90;;;;;;21066554;28;20091;-20
2021/07/08 22:37:43;;;;;;;12.95;4.50;;;22.30;71.60;;;;;;21079112;28;20105;-20
2021/07/08 22:47:43;;;;;;;13.45;4.63;;;22.30;71.40;;;;;;21056080;28;20071;-19
2021/07/08 22:57:44;;;;;;;10.50;4.72;;;22.30;71.10;;;;;;21057751;28;20066;-19
2021/07/08 23:07:45;;;;;;;8.00;3.63;;;22.30;71.00;;;;;;21063343;28;20028;-19
2021/07/08 23:17:45;;;;;;;7.85;4.18;;;22.20;70.80;;;;;;21060342;28;20028;-19
2021/07/08 23:27:46;;;;;;;5.20;3.35;;;22.20;70.70;;;;;;21055893;28;20035;-19
2021/07/08 23:37:46;;;;;;;9.95;3.40;;;22.30;70.60;;;;;;21058829;28;20043;-19
